Time;durP1;ratioP1;P1;durP2;ratioP2;P2;SDS_P1;SDS_P2;PMS_P1;PMS_P2;Temp;Humidity;BMP_temperature;BMP_pressure;BME280_temperature;BME280_humidity;BME280_pressure;Samples;Min_cycle;Max_cycle;Signal;HPM_P1;HPM_P2
2023/03/13 00:01:19;;;;;;;29.70;6.10;;;8.00;99.90;;;;;;6156721;23;20442;-84
2023/03/13 00:03:51;;;;;;;25.05;6.45;;;9.60;99.90;;;;;;6129475;23;20022;-84
2023/03/13 00:06:21;;;;;;;30.67;6.70;;;8.40;99.90;;;;;;6128772;23;20083;-84
2023/03/13 00:08:50;;;;;;;24.47;5.87;;;9.70;99.90;;;;;;6129740;23;20025;-84
2023/03/13 00:11:28;;;;;;;29.27;5.97;;;9.70;99.90;;;;;;6128982;23;20018;-84
2023/03/13 00:14:01;;;;;;;29.33;6.17;;;8.00;99.90;;;;;;6155519;23;20080;-84
2023/03/13 00:16:45;;;;;;;26.55;5.68;;;9.30;99.90;;;;;;6165492;23;20529;-84
2023/03/13 00:19:23;;;;;;;27.98;5.80;;;9.50;99.90;;;;;;6177953;23;20048;-83
2023/03/13 00:24:28;;;;;;;25.97;5.93;;;8.30;99.90;;;;;;6169039;23;20080;-83
2023/03/13 00:36:10;;;;;;;24.10;5.37;;;8.30;99.90;;;;;;6176376;23;20026;-83
2023/03/13 00:38:36;;;;;;;20.27;5.47;;;8.10;99.90;;;;;;6155732;23;20048;-83
2023/03/13 00:41:11;;;;;;;24.63;5.53;;;9.50;99.90;;;;;;6155305;23;20041;-83
2023/03/13 00:43:37;;;;;;;25.70;5.33;;;9.40;99.90;;;;;;6128850;23;20021;-85
2023/03/13 00:46:04;;;;;;;24.73;5.97;;;10.00;99.90;;;;;;6156105;23;20010;-83
2023/03/13 00:48:30;;;;;;;28.53;5.77;;;8.20;99.90;;;;;;6128757;23;20021;-83
2023/03/13 00:50:56;;;;;;;23.80;5.73;;;8.10;99.90;;;;;;6129405;23;20144;-83
2023/03/13 00:53:31;;;;;;;24.50;5.53;;;9.30;99.90;;;;;;6154911;23;20037;-83
2023/03/13 00:56:14;;;;;;;26.27;5.13;;;8.10;99.90;;;;;;6129619;23;20013;-83
2023/03/13 00:58:47;;;;;;;24.42;6.00;;;9.40;99.90;;;;;;6128897;23;20017;-83
2023/03/13 01:01:35;;;;;;;26.38;5.82;;;9.40;99.90;;;;;;6128416;23;20052;-83
2023/03/13 01:04:17;;;;;;;24.07;5.70;;;8.10;99.90;;;;;;6129126;23;20438;-82
2023/03/13 01:06:49;;;;;;;27.73;6.13;;;8.20;99.90;;;;;;6155574;23;20017;-83
2023/03/13 01:09:18;;;;;;;27.03;6.17;;;9.90;99.90;;;;;;6154451;23;20520;-83
2023/03/13 01:11:56;;;;;;;20.60;5.10;;;7.50;99.90;;;;;;6129232;23;20030;-82
2023/03/13 01:14:22;;;;;;;21.67;5.50;;;9.80;99.90;;;;;;6128387;23;20022;-83
2023/03/13 01:16:57;;;;;;;26.63;6.10;;;8.10;99.90;;;;;;6128701;23;20052;-83
2023/03/13 01:19:23;;;;;;;28.47;5.57;;;7.80;99.90;;;;;;6129204;23;20014;-82
2023/03/13 01:21:49;;;;;;;29.47;5.60;;;9.70;99.90;;;;;;6154843;23;20101;-83
2023/03/13 01:24:23;;;;;;;23.13;5.23;;;9.30;99.90;;;;;;6129045;23;20473;-83
2023/03/13 01:26:52;;;;;;;28.00;5.80;;;9.70;99.90;;;;;;6129045;23;20510;-83
2023/03/13 01:29:30;;;;;;;28.50;6.40;;;8.10;99.90;;;;;;6154806;23;20513;-83
2023/03/13 01:31:55;;;;;;;26.83;5.80;;;9.30;99.90;;;;;;6129479;23;20517;-83
2023/03/13 01:34:39;;;;;;;24.83;5.50;;;7.90;99.90;;;;;;6155409;23;20053;-84
2023/03/13 01:37:17;;;;;;;25.40;5.28;;;9.40;99.90;;;;;;6128429;23;20021;-83
2023/03/13 01:39:43;;;;;;;27.60;5.77;;;8.10;99.90;;;;;;6129115;23;20438;-83
2023/03/13 01:42:09;;;;;;;29.87;7.53;;;8.40;99.90;;;;;;6129068;23;20017;-83
2023/03/13 01:44:55;;;;;;;25.30;5.73;;;7.80;99.90;;;;;;6127663;23;20022;-83
2023/03/13 01:47:22;;;;;;;31.30;6.00;;;8.80;99.90;;;;;;6129101;23;20010;-83
2023/03/13 01:49:53;;;;;;;29.37;6.00;;;9.60;99.90;;;;;;6154250;23;20096;-83
2023/03/13 01:52:20;;;;;;;23.93;5.87;;;9.50;99.90;;;;;;6155267;23;20086;-83
2023/03/13 01:54:55;;;;;;;29.67;6.07;;;9.80;99.90;;;;;;6155202;23;20018;-82
2023/03/13 01:57:32;;;;;;;24.30;5.73;;;9.80;99.90;;;;;;6138874;23;20045;-83
2023/03/13 02:00:16;;;;;;;23.50;5.50;;;9.50;99.90;;;;;;6171564;23;20010;-82
2023/03/13 02:02:54;;;;;;;28.00;5.45;;;8.30;99.90;;;;;;6130412;23;20456;-83
2023/03/13 02:05:27;;;;;;;24.53;5.57;;;8.30;99.90;;;;;;6145606;23;20028;-83
2023/03/13 02:08:48;;;;;;;27.00;5.90;;;8.30;99.90;;;;;;6140249;23;20018;-83
2023/03/13 02:15:59;;;;;;;26.23;5.60;;;8.10;99.90;;;;;;6157115;23;20068;-83
2023/03/13 02:18:28;;;;;;;24.90;6.00;;;8.30;99.90;;;;;;6129087;23;20029;-82
2023/03/13 02:21:20;;;;;;;26.60;6.63;;;8.30;99.90;;;;;;6130938;23;20040;-82
2023/03/13 02:24:13;;;;;;;29.20;6.70;;;8.30;99.90;;;;;;6130048;23;20025;-82
2023/03/13 02:26:57;;;;;;;25.67;6.10;;;9.10;99.90;;;;;;6120254;23;20045;-82
2023/03/13 02:29:24;;;;;;;21.88;6.65;;;9.90;99.90;;;;;;6157405;23;20025;-82
2023/03/13 02:31:55;;;;;;;21.90;6.80;;;8.20;99.90;;;;;;6156369;23;20018;-82
2023/03/13 02:34:31;;;;;;;26.90;6.83;;;9.50;99.90;;;;;;6156871;23;20010;-82
2023/03/13 02:37:43;;;;;;;24.20;6.83;;;7.00;99.90;;;;;;6157184;23;20017;-81
2023/03/13 02:40:11;;;;;;;20.53;6.47;;;8.40;99.90;;;;;;6129786;23;20018;-82
2023/03/13 02:42:47;;;;;;;23.57;7.00;;;8.30;99.90;;;;;;6156021;23;20088;-82
2023/03/13 02:45:29;;;;;;;21.37;6.13;;;7.90;99.90;;;;;;6130709;23;20080;-82
2023/03/13 02:47:54;;;;;;;19.87;6.30;;;8.00;99.90;;;;;;6156288;23;20084;-82
2023/03/13 02:50:21;;;;;;;23.80;6.40;;;9.70;99.90;;;;;;6130777;23;20473;-82
2023/03/13 02:53:02;;;;;;;20.03;5.83;;;9.30;99.90;;;;;;6155980;23;20061;-82
2023/03/13 02:55:39;;;;;;;22.87;5.90;;;9.90;99.90;;;;;;6130510;23;20462;-83
2023/03/13 02:58:13;;;;;;;17.10;5.80;;;8.40;99.90;;;;;;6156661;23;20016;-82
2023/03/13 03:01:06;;;;;;;21.07;6.07;;;10.10;99.90;;;;;;6155284;23;20100;-83
2023/03/13 03:03:40;;;;;;;17.37;5.20;;;8.10;99.90;;;;;;6156239;23;20088;-83
2023/03/13 03:06:09;;;;;;;17.70;5.27;;;9.60;99.90;;;;;;6129623;23;20018;-83
2023/03/13 03:08:51;;;;;;;15.73;4.83;;;8.60;99.90;;;;;;6152383;23;20076;-84
2023/03/13 03:12:26;;;;;;;14.03;4.90;;;8.60;99.90;;;;;;6043729;23;20027;-83
2023/03/13 03:14:55;;;;;;;16.20;4.57;;;8.50;99.90;;;;;;6090089;23;20007;-84
2023/03/13 03:17:30;;;;;;;14.97;4.73;;;9.80;99.90;;;;;;6090804;23;20014;-85
2023/03/13 03:19:58;;;;;;;12.17;4.83;;;8.80;99.90;;;;;;6099666;23;20019;-85
2023/03/13 03:22:27;;;;;;;15.97;4.80;;;8.80;99.90;;;;;;6072216;23;20021;-85
2023/03/13 03:24:55;;;;;;;13.87;4.60;;;10.00;99.90;;;;;;6098034;23;20094;-85
2023/03/13 03:27:24;;;;;;;17.37;4.33;;;10.10;99.90;;;;;;6098693;23;20056;-85
2023/03/13 03:29:56;;;;;;;11.37;3.93;;;9.40;99.90;;;;;;6106835;23;20098;-85
2023/03/13 03:38:38;;;;;;;11.90;4.10;;;8.90;99.90;;;;;;6163177;23;20479;-84
2023/03/13 03:41:12;;;;;;;12.73;4.67;;;10.30;99.90;;;;;;6157177;23;20057;-85
2023/03/13 03:43:41;;;;;;;13.23;4.40;;;10.10;99.90;;;;;;6129461;23;20442;-85
2023/03/13 03:46:10;;;;;;;15.30;4.73;;;10.40;99.90;;;;;;6156383;23;20070;-84
2023/03/13 03:48:39;;;;;;;14.90;5.40;;;9.50;99.90;;;;;;6129587;23;20018;-85
2023/03/13 03:51:20;;;;;;;14.43;5.10;;;10.10;99.90;;;;;;6155593;23;20052;-84
2023/03/13 03:53:52;;;;;;;17.30;5.00;;;9.10;99.90;;;;;;6154387;23;20026;-84
2023/03/13 03:56:18;;;;;;;13.93;4.63;;;10.20;99.90;;;;;;6154851;23;20021;-84
2023/03/13 03:58:43;;;;;;;15.13;4.60;;;10.40;99.90;;;;;;6129608;23;20095;-84
2023/03/13 04:01:18;;;;;;;12.37;4.90;;;10.40;99.90;;;;;;6156640;23;20049;-84
2023/03/13 04:03:56;;;;;;;16.13;5.13;;;9.10;99.90;;;;;;6128370;23;20450;-84
2023/03/13 04:06:22;;;;;;;14.80;4.60;;;9.50;99.90;;;;;;6129715;23;20017;-85
2023/03/13 04:08:51;;;;;;;12.60;5.30;;;9.40;99.90;;;;;;6155795;23;20013;-84
2023/03/13 04:11:20;;;;;;;16.63;5.60;;;10.90;99.90;;;;;;6155639;23;20020;-85
2023/03/13 04:13:46;;;;;;;11.07;4.60;;;10.20;99.90;;;;;;6155800;23;20029;-85
2023/03/13 04:16:12;;;;;;;15.93;5.00;;;8.70;99.90;;;;;;6129594;23;20469;-85
2023/03/13 04:21:23;;;;;;;13.43;5.38;;;9.40;99.90;;;;;;6155622;23;20029;-85
2023/03/13 04:23:55;;;;;;;11.60;4.87;;;10.40;99.90;;;;;;6129624;23;20021;-85
2023/03/13 04:26:20;;;;;;;13.27;4.97;;;9.50;99.90;;;;;;6155303;23;20018;-86
2023/03/13 04:29:11;;;;;;;13.13;4.97;;;9.50;99.90;;;;;;6129589;23;20035;-84
2023/03/13 04:31:40;;;;;;;13.25;4.65;;;8.90;99.90;;;;;;6155460;23;20022;-85
2023/03/13 04:34:05;;;;;;;12.85;4.85;;;11.20;99.90;;;;;;6129396;23;20028;-85
2023/03/13 04:36:52;;;;;;;14.00;5.25;;;10.30;99.90;;;;;;6129241;23;20013;-85
2023/03/13 04:39:39;;;;;;;12.03;5.00;;;11.30;99.90;;;;;;6155278;23;20021;-85
2023/03/13 04:42:29;;;;;;;11.17;4.83;;;11.30;99.90;;;;;;6155587;23;20021;-85
2023/03/13 04:44:55;;;;;;;9.77;4.17;;;9.10;99.90;;;;;;6155762;23;20041;-84
2023/03/13 04:47:39;;;;;;;11.70;4.97;;;10.40;99.90;;;;;;6128945;23;20014;-85
2023/03/13 04:53:00;;;;;;;13.27;5.32;;;9.80;99.90;;;;;;6108599;23;20092;-85
2023/03/13 04:55:44;;;;;;;12.55;4.45;;;10.00;99.90;;;;;;6129749;23;20022;-85
2023/03/13 04:58:21;;;;;;;12.25;4.82;;;11.30;99.90;;;;;;6155318;23;20025;-84
2023/03/13 05:00:47;;;;;;;13.60;5.18;;;11.00;99.90;;;;;;6124822;23;20021;-85
2023/03/13 05:03:31;;;;;;;12.63;4.97;;;10.90;99.90;;;;;;6131211;23;20081;-85
2023/03/13 05:06:15;;;;;;;12.50;4.97;;;11.80;99.90;;;;;;6132739;23;20073;-85
2023/03/13 05:08:59;;;;;;;12.50;4.88;;;11.70;99.90;;;;;;6159052;23;20016;-85
2023/03/13 05:12:33;;;;;;;11.80;4.93;;;11.60;99.90;;;;;;6132507;23;20084;-85
2023/03/13 05:15:02;;;;;;;12.98;5.40;;;9.50;99.90;;;;;;6055137;23;20072;-85
2023/03/13 05:18:02;;;;;;;11.63;4.90;;;10.20;99.90;;;;;;6158379;23;20030;-86
2023/03/13 05:20:59;;;;;;;12.23;5.40;;;9.90;99.90;;;;;;6127381;23;20025;-85
2023/03/13 05:23:27;;;;;;;13.48;6.43;;;10.40;99.90;;;;;;6154261;23;20101;-85
2023/03/13 05:25:53;;;;;;;12.80;5.60;;;11.90;99.90;;;;;;6129272;23;20017;-85
2023/03/13 05:28:19;;;;;;;11.57;5.03;;;11.90;99.90;;;;;;6128385;23;20092;-85
2023/03/13 05:30:44;;;;;;;12.60;5.40;;;10.40;99.90;;;;;;6154980;23;20025;-85
2023/03/13 05:33:13;;;;;;;11.32;4.93;;;11.30;99.90;;;;;;6128882;23;20339;-85
2023/03/13 05:35:53;;;;;;;12.80;5.93;;;9.90;99.90;;;;;;6128037;23;20372;-85
2023/03/13 05:38:25;;;;;;;13.57;6.18;;;11.00;99.90;;;;;;6130090;23;20041;-87
2023/03/13 05:40:53;;;;;;;12.18;5.70;;;11.40;99.90;;;;;;6152624;23;20037;-85
2023/03/13 05:43:37;;;;;;;11.73;5.32;;;10.60;99.90;;;;;;6128296;23;20033;-85
2023/03/13 05:46:08;;;;;;;13.15;6.00;;;12.20;99.90;;;;;;6128853;23;20097;-86
2023/03/13 05:48:39;;;;;;;14.23;6.20;;;10.70;99.90;;;;;;6130858;23;20022;-85
2023/03/13 05:51:20;;;;;;;13.45;6.15;;;10.70;99.90;;;;;;6157681;23;20024;-85
2023/03/13 05:53:45;;;;;;;12.82;5.82;;;11.60;99.90;;;;;;6130916;23;20397;-86
2023/03/13 05:56:14;;;;;;;16.53;7.73;;;10.10;99.90;;;;;;6129348;23;20049;-84
2023/03/13 05:58:40;;;;;;;15.82;6.82;;;10.80;99.90;;;;;;6131023;23;20089;-84
2023/03/13 06:01:07;;;;;;;12.77;6.20;;;11.30;99.90;;;;;;6157081;23;20068;-85
2023/03/13 06:03:48;;;;;;;12.97;6.60;;;10.70;99.90;;;;;;6156570;23;20028;-85
2023/03/13 06:06:42;;;;;;;16.55;6.82;;;12.40;99.90;;;;;;6131252;23;20096;-85
2023/03/13 06:09:11;;;;;;;15.77;7.53;;;11.70;99.90;;;;;;6042796;23;20023;-85
2023/03/13 06:11:55;;;;;;;14.57;7.50;;;12.40;99.90;;;;;;6066103;23;20055;-85
2023/03/13 06:14:32;;;;;;;14.43;6.47;;;11.20;99.90;;;;;;6069627;23;20024;-84
2023/03/13 06:16:58;;;;;;;16.52;7.88;;;11.20;99.90;;;;;;6058740;23;20083;-84
2023/03/13 06:19:42;;;;;;;13.13;6.50;;;12.20;99.90;;;;;;6048044;23;20018;-85
2023/03/13 06:22:22;;;;;;;15.65;7.90;;;12.70;99.90;;;;;;6045210;23;20023;-85
2023/03/13 06:24:58;;;;;;;17.63;8.23;;;12.70;99.90;;;;;;6154631;23;20398;-85
2023/03/13 06:27:24;;;;;;;15.32;7.38;;;12.00;99.90;;;;;;6130234;23;20049;-85
2023/03/13 06:29:55;;;;;;;14.85;7.63;;;11.80;99.90;;;;;;6131205;23;20037;-85
2023/03/13 06:32:45;;;;;;;17.20;7.50;;;11.70;99.90;;;;;;6138205;23;20101;-85
2023/03/13 06:35:29;;;;;;;14.07;7.50;;;11.80;99.90;;;;;;6135919;23;20013;-85
2023/03/13 06:42:27;;;;;;;15.35;6.90;;;10.80;99.90;;;;;;6160074;23;20028;-85
2023/03/13 06:45:18;;;;;;;14.98;7.15;;;11.90;99.90;;;;;;6156006;23;20446;-85
2023/03/13 06:48:04;;;;;;;15.18;7.03;;;11.50;99.90;;;;;;6124094;23;20036;-85
2023/03/13 06:50:47;;;;;;;14.93;6.43;;;11.60;99.90;;;;;;6101284;23;20025;-85
2023/03/13 06:54:04;;;;;;;14.85;6.65;;;12.40;99.90;;;;;;6143347;23;20025;-86
2023/03/13 06:56:40;;;;;;;13.75;6.40;;;11.30;99.90;;;;;;6153753;23;20064;-85
2023/03/13 06:59:06;;;;;;;12.52;6.55;;;11.60;99.90;;;;;;6128769;23;20017;-84
2023/03/13 07:19:45;;;;;;;14.25;6.00;;;11.80;99.90;;;;;;6165006;23;20024;-89
2023/03/13 07:49:47;;;;;;;12.80;5.43;;;12.00;99.90;;;;;;6156601;23;20033;-94
2023/03/13 10:45:20;;;;;;;8.88;2.60;;;13.70;99.90;;;;;;6103365;23;20109;-94
2023/03/13 10:48:31;;;;;;;9.38;2.40;;;13.10;99.90;;;;;;6074141;23;20038;-93
2023/03/13 10:51:20;;;;;;;10.10;2.40;;;14.20;99.90;;;;;;6102945;23;20022;-95
2023/03/13 11:36:54;;;;;;;6.63;1.98;;;15.30;99.90;;;;;;6156176;23;20542;-90
2023/03/13 11:39:55;;;;;;;8.10;2.03;;;15.60;99.90;;;;;;6155343;23;20025;-90
2023/03/13 13:47:52;;;;;;;8.52;2.05;;;16.20;99.90;;;;;;6112771;23;20059;-95
2023/03/13 14:01:36;;;;;;;9.05;2.13;;;16.10;99.90;;;;;;6145308;23;20298;-91
2023/03/13 16:04:10;;;;;;;14.40;2.72;;;16.70;99.90;;;;;;6139671;22;20029;-94
2023/03/13 16:16:28;;;;;;;11.70;3.08;;;16.10;99.90;;;;;;6097706;23;20089;-90
2023/03/13 16:19:33;;;;;;;12.68;3.00;;;16.20;99.90;;;;;;6072552;23;20338;-88
2023/03/13 16:26:07;;;;;;;14.35;2.65;;;16.10;99.90;;;;;;6118453;23;20041;-90
2023/03/13 16:28:36;;;;;;;14.55;3.35;;;15.60;99.90;;;;;;6156828;23;20022;-91
2023/03/13 18:28:58;;;;;;;16.30;3.88;;;11.90;99.90;;;;;;6145642;23;20033;-86
2023/03/13 18:31:54;;;;;;;21.40;4.20;;;11.90;99.90;;;;;;6137195;23;20032;-85
2023/03/13 18:34:45;;;;;;;18.38;3.92;;;11.90;99.90;;;;;;6124150;23;20021;-86
2023/03/13 18:43:38;;;;;;;19.38;4.88;;;11.70;99.90;;;;;;6129480;23;20018;-87
2023/03/13 18:49:54;;;;;;;17.33;3.90;;;11.40;99.90;;;;;;6094482;23;20017;-88
2023/03/13 18:55:13;;;;;;;16.98;3.92;;;11.30;99.90;;;;;;6155077;23;20029;-86
2023/03/13 19:16:54;;;;;;;18.27;4.50;;;10.80;99.90;;;;;;6155584;23;20100;-87
2023/03/13 19:25:39;;;;;;;19.08;4.57;;;10.50;99.90;;;;;;6152281;23;20034;-88
2023/03/13 19:32:06;;;;;;;22.95;5.13;;;10.40;99.90;;;;;;6127121;23;20088;-86
2023/03/13 19:41:53;;;;;;;21.63;4.47;;;10.40;99.90;;;;;;6008494;23;20032;-86
2023/03/13 19:50:41;;;;;;;22.65;3.95;;;10.50;99.90;;;;;;6156268;23;20021;-87
2023/03/13 19:57:03;;;;;;;23.30;5.20;;;10.30;99.90;;;;;;6165689;23;20025;-86
2023/03/13 20:03:06;;;;;;;22.10;4.50;;;10.50;99.90;;;;;;6165457;23;20018;-86
2023/03/13 20:06:40;;;;;;;22.98;5.00;;;10.70;99.90;;;;;;6193753;23;20088;-85
2023/03/13 20:10:18;;;;;;;25.00;5.00;;;10.00;99.90;;;;;;6156848;23;20079;-85
2023/03/13 20:12:53;;;;;;;20.73;4.40;;;10.80;99.90;;;;;;6157557;23;20076;-86
2023/03/13 20:15:22;;;;;;;20.50;5.23;;;10.80;99.90;;;;;;6100448;23;20018;-82
2023/03/13 20:17:56;;;;;;;23.43;4.77;;;10.80;99.90;;;;;;6125815;23;20017;-86
2023/03/13 20:20:22;;;;;;;21.77;5.20;;;12.30;99.90;;;;;;6116399;23;20315;-86
2023/03/13 20:22:55;;;;;;;23.70;4.60;;;10.90;99.90;;;;;;6154066;23;20055;-86
2023/03/13 20:25:22;;;;;;;26.25;4.82;;;12.50;99.90;;;;;;6128757;23;20018;-86
2023/03/13 20:35:22;;;;;;;24.13;5.07;;;10.40;99.90;;;;;;6154182;23;20524;-86
2023/03/13 20:40:22;;;;;;;25.52;5.55;;;10.80;99.90;;;;;;6155855;23;20022;-86
2023/03/13 20:42:53;;;;;;;24.77;4.95;;;12.20;99.90;;;;;;6128564;23;20335;-86
2023/03/13 20:45:37;;;;;;;25.38;5.15;;;11.90;99.90;;;;;;6130173;23;20017;-86
2023/03/13 20:48:44;;;;;;;19.50;4.55;;;10.70;99.90;;;;;;6130306;23;20021;-86
2023/03/13 20:55:11;;;;;;;22.63;5.80;;;10.40;99.90;;;;;;6155720;23;20016;-87
2023/03/13 20:57:43;;;;;;;25.42;5.38;;;10.70;99.90;;;;;;6155830;23;20079;-86
2023/03/13 21:00:45;;;;;;;26.70;6.60;;;11.90;99.90;;;;;;6130496;23;20438;-86
2023/03/13 21:06:37;;;;;;;22.95;4.80;;;10.40;99.90;;;;;;6151136;23;20048;-87
2023/03/13 21:10:11;;;;;;;22.77;5.38;;;10.10;99.90;;;;;;6172678;23;20017;-86
2023/03/13 21:13:33;;;;;;;20.80;4.50;;;10.60;99.90;;;;;;6167422;23;20021;-85
2023/03/13 21:16:00;;;;;;;22.70;4.82;;;10.30;99.90;;;;;;6157325;23;20014;-85
2023/03/13 21:18:51;;;;;;;23.15;5.28;;;9.70;99.90;;;;;;6129018;23;20018;-85
2023/03/13 21:21:18;;;;;;;25.27;5.15;;;9.60;99.90;;;;;;6166371;23;20029;-85
2023/03/13 21:24:35;;;;;;;19.38;4.50;;;9.90;99.90;;;;;;6134603;23;20021;-84
2023/03/13 21:30:48;;;;;;;24.25;4.93;;;10.30;99.90;;;;;;6149795;23;20025;-85
2023/03/13 21:50:53;;;;;;;22.02;4.50;;;10.00;99.90;;;;;;6122936;23;20022;-86
2023/03/13 21:53:20;;;;;;;23.05;5.57;;;9.80;99.90;;;;;;6123009;23;20028;-86
2023/03/13 21:55:51;;;;;;;21.20;5.07;;;10.50;99.90;;;;;;6124138;23;20018;-84
2023/03/13 21:58:26;;;;;;;24.88;5.28;;;10.50;99.90;;;;;;6124251;23;20465;-84
2023/03/13 22:04:58;;;;;;;23.98;5.30;;;10.00;99.90;;;;;;6152746;23;20101;-86
2023/03/13 22:07:37;;;;;;;19.03;4.70;;;9.80;99.90;;;;;;6127127;23;20025;-86
2023/03/13 22:10:04;;;;;;;23.63;5.10;;;10.10;99.90;;;;;;6153707;23;20048;-85
2023/03/13 22:12:30;;;;;;;19.87;4.40;;;10.00;99.90;;;;;;6153905;23;20525;-84
2023/03/13 22:14:58;;;;;;;23.70;5.80;;;10.00;99.90;;;;;;6152515;23;20057;-85
2023/03/13 22:17:30;;;;;;;22.03;4.90;;;10.00;99.90;;;;;;6126288;23;20017;-85
2023/03/13 22:20:03;;;;;;;22.90;4.30;;;11.50;99.90;;;;;;6127061;23;20026;-85
2023/03/13 22:22:32;;;;;;;23.40;4.53;;;10.10;99.90;;;;;;6126298;23;20025;-85
2023/03/13 22:25:05;;;;;;;21.52;5.38;;;11.60;99.90;;;;;;6127202;23;20028;-85
2023/03/13 22:27:31;;;;;;;22.35;4.65;;;10.10;99.90;;;;;;6125491;23;20020;-86
2023/03/13 22:29:59;;;;;;;21.70;4.53;;;10.00;99.90;;;;;;6128219;23;20820;-85
2023/03/13 22:32:31;;;;;;;22.85;5.13;;;11.20;99.90;;;;;;6129839;23;20029;-85
2023/03/13 22:35:08;;;;;;;23.00;4.70;;;11.70;99.90;;;;;;6128457;23;20017;-84
2023/03/13 22:37:34;;;;;;;21.33;4.78;;;11.30;99.90;;;;;;6155436;23;20028;-85
2023/03/13 22:40:04;;;;;;;24.13;4.40;;;11.60;99.90;;;;;;6129062;23;20018;-84
2023/03/13 22:42:42;;;;;;;18.17;4.27;;;9.80;99.90;;;;;;6128854;23;20021;-85
2023/03/13 22:45:18;;;;;;;21.50;4.93;;;11.80;99.90;;;;;;6129657;23;20022;-83
2023/03/13 22:47:47;;;;;;;16.30;4.00;;;10.20;99.90;;;;;;6131055;23;20104;-80
2023/03/13 22:50:26;;;;;;;20.87;4.60;;;11.70;99.90;;;;;;6176855;23;20020;-83
2023/03/13 22:52:52;;;;;;;23.83;6.83;;;10.20;99.90;;;;;;6135217;23;20029;-82
2023/03/13 22:59:02;;;;;;;19.33;4.80;;;10.20;99.90;;;;;;6171018;23;20028;-83
2023/03/13 23:01:31;;;;;;;23.92;4.78;;;11.50;99.90;;;;;;6132189;23;20092;-83
2023/03/13 23:12:48;;;;;;;19.83;4.70;;;9.90;99.90;;;;;;6136870;23;20025;-82
2023/03/13 23:15:20;;;;;;;18.70;5.45;;;11.20;99.90;;;;;;6130886;23;20043;-82
2023/03/13 23:17:52;;;;;;;22.27;5.07;;;11.20;99.90;;;;;;6129201;23;20021;-82
2023/03/13 23:20:36;;;;;;;21.05;4.68;;;10.70;99.90;;;;;;6156471;23;20018;-82
2023/03/13 23:23:08;;;;;;;21.08;4.72;;;10.90;99.90;;;;;;6130893;23;20025;-82
2023/03/13 23:25:46;;;;;;;22.73;4.78;;;11.20;99.90;;;;;;6155922;23;20029;-82
2023/03/13 23:28:18;;;;;;;21.30;4.28;;;11.00;99.90;;;;;;6129648;23;20013;-82
2023/03/13 23:30:59;;;;;;;19.73;5.53;;;11.10;99.90;;;;;;6155453;23;20427;-82
2023/03/13 23:37:35;;;;;;;21.77;4.32;;;9.90;99.90;;;;;;6156372;23;20013;-82
2023/03/13 23:43:40;;;;;;;20.67;4.72;;;10.10;99.90;;;;;;6153363;23;20084;-82
2023/03/13 23:46:24;;;;;;;21.48;4.30;;;10.00;99.90;;;;;;6129351;23;20025;-82
2023/03/13 23:52:43;;;;;;;17.98;4.68;;;10.30;99.90;;;;;;6154917;23;20020;-82
